Terminal Aerodrome Forecast
Issued by NWS

Home | Current Version | Previous Version | Text Only | Print | Product List | Glossary On
Versions: 1 2 3 4 5 6 7 8 9 10 11 12 13 14 15 16 17 18 19 20 21 22 23 24 25 26 27 28 29 30
000
FTUS45 KREV 212000 AAA
TAFTVL
TAF AMD
KTVL 212009Z 2120/2218 06008KT 3SM -RA FU HZ SCT035 BKN045
      TEMPO 2120/2122 2SM -RA FU HZ
     FM212200 17008KT 4SM HZ SCT040 BKN090
     FM220300 VRB03KT P6SM SCT090=

USA.gov is the U.S. government's official web portal to all federal, state and local government web resources and services.